sensor_id;sensor_type;location;lat;lon;timestamp;pressure;altitude;pressure_sealevel;temperature;humidity
20228;BME280;12195;55.790;37.572;2023-08-12T00:01:21;99959.72;;;24.23;66.74
20228;BME280;12195;55.790;37.572;2023-08-12T00:03:54;99955.34;;;24.30;66.10
20228;BME280;12195;55.790;37.572;2023-08-12T00:06:37;99952.05;;;24.52;66.32
20228;BME280;12195;55.790;37.572;2023-08-12T00:09:10;99948.30;;;24.29;65.66
20228;BME280;12195;55.790;37.572;2023-08-12T00:11:55;99940.12;;;24.47;66.25
20228;BME280;12195;55.790;37.572;2023-08-12T00:14:28;99934.86;;;24.21;65.78
20228;BME280;12195;55.790;37.572;2023-08-12T00:17:11;99933.40;;;24.43;65.83
20228;BME280;12195;55.790;37.572;2023-08-12T00:19:44;99938.03;;;24.17;65.89
20228;BME280;12195;55.790;37.572;2023-08-12T00:22:17;99941.06;;;24.14;66.33
20228;BME280;12195;55.790;37.572;2023-08-12T00:25:00;99943.78;;;24.30;66.49
20228;BME280;12195;55.790;37.572;2023-08-12T00:27:33;99954.30;;;24.07;66.19
20228;BME280;12195;55.790;37.572;2023-08-12T00:30:06;99941.05;;;24.06;66.14
20228;BME280;12195;55.790;37.572;2023-08-12T00:32:53;99955.17;;;24.24;66.38
20228;BME280;12195;55.790;37.572;2023-08-12T00:35:26;99943.19;;;24.02;66.22
20228;BME280;12195;55.790;37.572;2023-08-12T00:38:11;99950.65;;;24.24;66.06
20228;BME280;12195;55.790;37.572;2023-08-12T00:40:56;99951.82;;;24.22;66.28
20228;BME280;12195;55.790;37.572;2023-08-12T00:43:30;99933.97;;;23.97;66.53
20228;BME280;12195;55.790;37.572;2023-08-12T00:46:14;99933.83;;;24.14;66.44
20228;BME280;12195;55.790;37.572;2023-08-12T00:48:58;99932.31;;;24.12;66.63
20228;BME280;12195;55.790;37.572;2023-08-12T00:51:31;99933.91;;;23.89;66.56
20228;BME280;12195;55.790;37.572;2023-08-12T00:54:18;99944.38;;;24.08;66.91
20228;BME280;12195;55.790;37.572;2023-08-12T00:57:03;99948.08;;;24.07;66.87
20228;BME280;12195;55.790;37.572;2023-08-12T00:59:37;99938.36;;;23.72;66.85
20228;BME280;12195;55.790;37.572;2023-08-12T01:02:24;99946.41;;;24.06;67.04
20228;BME280;12195;55.790;37.572;2023-08-12T01:05:09;99956.47;;;24.12;66.06
20228;BME280;12195;55.790;37.572;2023-08-12T01:07:42;99955.22;;;23.90;65.89
20228;BME280;12195;55.790;37.572;2023-08-12T01:10:30;99957.67;;;24.17;65.53
20228;BME280;12195;55.790;37.572;2023-08-12T01:16:13;99940.95;;;23.90;65.76
20228;BME280;12195;55.790;37.572;2023-08-12T01:19:00;99938.20;;;24.07;66.44
20228;BME280;12195;55.790;37.572;2023-08-12T01:21:44;99937.66;;;24.04;66.19
20228;BME280;12195;55.790;37.572;2023-08-12T01:24:36;99930.78;;;24.01;66.26
20228;BME280;12195;55.790;37.572;2023-08-12T01:27:19;99923.91;;;23.99;66.50
20228;BME280;12195;55.790;37.572;2023-08-12T01:30:05;99936.66;;;23.97;66.58
20228;BME280;12195;55.790;37.572;2023-08-12T01:32:50;99935.68;;;23.72;66.48
20228;BME280;12195;55.790;37.572;2023-08-12T01:35:41;99960.11;;;23.95;66.60
20228;BME280;12195;55.790;37.572;2023-08-12T01:38:14;99960.98;;;23.70;66.60
20228;BME280;12195;55.790;37.572;2023-08-12T01:41:01;99973.02;;;23.91;66.69
20228;BME280;12195;55.790;37.572;2023-08-12T01:43:45;99963.81;;;23.94;66.35
20228;BME280;12195;55.790;37.572;2023-08-12T01:46:19;99954.95;;;23.68;66.53
20228;BME280;12195;55.790;37.572;2023-08-12T01:49:01;99951.84;;;23.88;66.82
20228;BME280;12195;55.790;37.572;2023-08-12T01:51:34;99929.45;;;23.64;66.85
20228;BME280;12195;55.790;37.572;2023-08-12T01:54:06;99933.12;;;23.63;67.05
20228;BME280;12195;55.790;37.572;2023-08-12T01:56:50;99935.40;;;23.83;67.36
20228;BME280;12195;55.790;37.572;2023-08-12T01:59:23;99926.39;;;23.59;67.15
20228;BME280;12195;55.790;37.572;2023-08-12T02:01:56;99914.00;;;23.58;67.28
20228;BME280;12195;55.790;37.572;2023-08-12T02:04:40;99911.73;;;23.79;67.69
20228;BME280;12195;55.790;37.572;2023-08-12T02:07:26;99910.72;;;23.80;67.71
20228;BME280;12195;55.790;37.572;2023-08-12T02:09:59;99893.23;;;23.60;67.28
20228;BME280;12195;55.790;37.572;2023-08-12T02:12:43;99900.69;;;23.82;67.61
20228;BME280;12195;55.790;37.572;2023-08-12T02:15:16;99892.89;;;23.63;67.42
20228;BME280;12195;55.790;37.572;2023-08-12T02:18:01;99888.47;;;23.87;67.68
20228;BME280;12195;55.790;37.572;2023-08-12T02:20:48;99897.33;;;23.88;67.64
20228;BME280;12195;55.790;37.572;2023-08-12T02:23:21;99881.84;;;23.66;67.23
20228;BME280;12195;55.790;37.572;2023-08-12T02:26:05;99883.76;;;23.89;67.48
20228;BME280;12195;55.790;37.572;2023-08-12T02:28:38;99880.84;;;23.67;67.10
20228;BME280;12195;55.790;37.572;2023-08-12T02:31:22;99891.15;;;23.87;67.30
20228;BME280;12195;55.790;37.572;2023-08-12T02:33:57;99897.09;;;23.65;67.24
20228;BME280;12195;55.790;37.572;2023-08-12T02:36:40;99889.00;;;23.91;67.17
20228;BME280;12195;55.790;37.572;2023-08-12T02:39:13;99915.04;;;23.65;67.26
20228;BME280;12195;55.790;37.572;2023-08-12T02:41:58;99898.03;;;23.90;67.13
20228;BME280;12195;55.790;37.572;2023-08-12T02:44:43;99914.12;;;23.90;67.20
20228;BME280;12195;55.790;37.572;2023-08-12T02:47:16;99902.64;;;23.64;66.86
20228;BME280;12195;55.790;37.572;2023-08-12T02:50:00;99907.91;;;23.89;66.95
20228;BME280;12195;55.790;37.572;2023-08-12T02:52:35;99913.37;;;23.64;66.86
20228;BME280;12195;55.790;37.572;2023-08-12T02:55:18;99915.13;;;23.89;67.15
20228;BME280;12195;55.790;37.572;2023-08-12T02:58:01;99930.22;;;23.90;66.86
20228;BME280;12195;55.790;37.572;2023-08-12T03:00:46;99920.19;;;23.92;67.00
20228;BME280;12195;55.790;37.572;2023-08-12T03:03:19;99920.91;;;23.68;66.71
20228;BME280;12195;55.790;37.572;2023-08-12T03:06:03;99924.57;;;23.93;66.81
20228;BME280;12195;55.790;37.572;2023-08-12T03:08:36;99909.87;;;23.71;66.53
20228;BME280;12195;55.790;37.572;2023-08-12T03:11:20;99920.72;;;23.95;67.01
20228;BME280;12195;55.790;37.572;2023-08-12T03:13:53;99904.84;;;23.76;66.63
20228;BME280;12195;55.790;37.572;2023-08-12T03:16:38;99917.91;;;24.05;66.38
20228;BME280;12195;55.790;37.572;2023-08-12T03:19:11;99900.02;;;23.88;66.07
20228;BME280;12195;55.790;37.572;2023-08-12T03:21:55;99905.32;;;24.13;66.50
20228;BME280;12195;55.790;37.572;2023-08-12T03:24:39;99897.11;;;24.15;66.64
20228;BME280;12195;55.790;37.572;2023-08-12T03:27:23;99903.98;;;24.17;66.54
20228;BME280;12195;55.790;37.572;2023-08-12T03:29:57;99877.63;;;23.97;65.21
20228;BME280;12195;55.790;37.572;2023-08-12T03:32:41;99873.45;;;24.26;65.57
20228;BME280;12195;55.790;37.572;2023-08-12T03:35:26;99869.80;;;24.27;65.73
20228;BME280;12195;55.790;37.572;2023-08-12T03:38:00;99853.98;;;24.08;65.02
20228;BME280;12195;55.790;37.572;2023-08-12T03:40:44;99836.73;;;24.35;64.97
20228;BME280;12195;55.790;37.572;2023-08-12T03:43:19;99828.83;;;24.09;64.53
20228;BME280;12195;55.790;37.572;2023-08-12T03:46:05;99835.72;;;24.36;64.91
20228;BME280;12195;55.790;37.572;2023-08-12T03:48:38;99835.61;;;23.80;64.83
20228;BME280;12195;55.790;37.572;2023-08-12T03:51:23;99856.86;;;24.23;64.93
20228;BME280;12195;55.790;37.572;2023-08-12T03:53:56;99858.86;;;24.05;64.35
20228;BME280;12195;55.790;37.572;2023-08-12T03:56:43;99872.13;;;24.38;64.74
20228;BME280;12195;55.790;37.572;2023-08-12T03:59:26;99874.98;;;24.45;64.43
20228;BME280;12195;55.790;37.572;2023-08-12T04:02:00;99868.09;;;24.34;63.60
20228;BME280;12195;55.790;37.572;2023-08-12T04:04:43;99876.19;;;24.66;63.57
20228;BME280;12195;55.790;37.572;2023-08-12T04:07:16;99869.97;;;24.50;62.63
20228;BME280;12195;55.790;37.572;2023-08-12T04:09:59;99890.11;;;24.78;62.87
20228;BME280;12195;55.790;37.572;2023-08-12T04:12:32;99883.89;;;24.53;62.37
20228;BME280;12195;55.790;37.572;2023-08-12T04:15:15;99884.41;;;24.81;62.82
20228;BME280;12195;55.790;37.572;2023-08-12T04:17:48;99884.74;;;24.62;62.07
20228;BME280;12195;55.790;37.572;2023-08-12T04:20:33;99894.49;;;24.87;62.34
20228;BME280;12195;55.790;37.572;2023-08-12T04:23:18;99908.75;;;24.87;62.27
20228;BME280;12195;55.790;37.572;2023-08-12T04:26:01;99910.62;;;24.87;62.23
20228;BME280;12195;55.790;37.572;2023-08-12T04:28:34;99906.55;;;24.59;61.72
20228;BME280;12195;55.790;37.572;2023-08-12T04:31:17;99905.05;;;24.80;62.08
20228;BME280;12195;55.790;37.572;2023-08-12T04:33:50;99898.83;;;24.48;61.57
20228;BME280;12195;55.790;37.572;2023-08-12T04:36:37;99898.17;;;24.70;62.00
20228;BME280;12195;55.790;37.572;2023-08-12T04:39:22;99890.48;;;24.67;61.64
20228;BME280;12195;55.790;37.572;2023-08-12T04:42:08;99874.00;;;24.62;61.60
20228;BME280;12195;55.790;37.572;2023-08-12T04:44:41;99871.44;;;24.12;61.61
20228;BME280;12195;55.790;37.572;2023-08-12T04:47:26;99902.69;;;24.53;61.75
20228;BME280;12195;55.790;37.572;2023-08-12T04:50:00;99912.24;;;24.40;60.53
20228;BME280;12195;55.790;37.572;2023-08-12T04:52:45;99913.64;;;24.76;60.87
20228;BME280;12195;55.790;37.572;2023-08-12T04:55:19;99910.58;;;24.55;60.58
20228;BME280;12195;55.790;37.572;2023-08-12T04:58:02;99925.72;;;24.88;60.82
20228;BME280;12195;55.790;37.572;2023-08-12T05:00:46;99918.67;;;24.95;59.58
20228;BME280;12195;55.790;37.572;2023-08-12T05:03:19;99917.17;;;24.76;59.18
20228;BME280;12195;55.790;37.572;2023-08-12T05:06:03;99927.38;;;25.05;59.57
20228;BME280;12195;55.790;37.572;2023-08-12T05:08:50;99944.69;;;25.11;59.61
20228;BME280;12195;55.790;37.572;2023-08-12T05:11:33;99960.28;;;25.15;59.01
20228;BME280;12195;55.790;37.572;2023-08-12T05:14:06;99939.32;;;24.86;58.61
20228;BME280;12195;55.790;37.572;2023-08-12T05:16:50;99929.38;;;25.11;58.52
20228;BME280;12195;55.790;37.572;2023-08-12T05:19:33;99922.00;;;25.05;58.75
20228;BME280;12195;55.790;37.572;2023-08-12T05:22:18;99915.44;;;25.08;58.49
20228;BME280;12195;55.790;37.572;2023-08-12T05:25:00;99920.66;;;25.09;58.13
20228;BME280;12195;55.790;37.572;2023-08-12T05:27:33;99893.47;;;24.88;57.82
20228;BME280;12195;55.790;37.572;2023-08-12T05:30:18;99902.16;;;25.14;58.20
20228;BME280;12195;55.790;37.572;2023-08-12T05:33:05;99894.42;;;25.11;58.75
20228;BME280;12195;55.790;37.572;2023-08-12T05:35:38;99901.22;;;24.83;58.16
20228;BME280;12195;55.790;37.572;2023-08-12T05:38:11;99923.03;;;24.80;58.29
20228;BME280;12195;55.790;37.572;2023-08-12T05:40:55;99911.58;;;25.02;59.22
20228;BME280;12195;55.790;37.572;2023-08-12T05:43:28;99890.48;;;24.67;59.30
20228;BME280;12195;55.790;37.572;2023-08-12T05:46:12;99860.05;;;24.90;59.33
20228;BME280;12195;55.790;37.572;2023-08-12T05:48:45;99862.73;;;24.58;58.89
20228;BME280;12195;55.790;37.572;2023-08-12T05:51:31;99850.81;;;24.85;58.88
20228;BME280;12195;55.790;37.572;2023-08-12T05:54:05;99824.48;;;24.32;59.49
20228;BME280;12195;55.790;37.572;2023-08-12T05:56:50;99816.59;;;24.79;58.95
20228;BME280;12195;55.790;37.572;2023-08-12T05:59:23;99802.64;;;24.51;58.52
20228;BME280;12195;55.790;37.572;2023-08-12T06:02:08;99802.62;;;24.83;58.26
20228;BME280;12195;55.790;37.572;2023-08-12T06:04:53;99804.14;;;24.78;58.53
20228;BME280;12195;55.790;37.572;2023-08-12T06:07:38;99803.66;;;24.74;58.31
20228;BME280;12195;55.790;37.572;2023-08-12T06:10:11;99793.08;;;24.49;57.94
20228;BME280;12195;55.790;37.572;2023-08-12T06:12:44;99792.91;;;24.50;57.67
20228;BME280;12195;55.790;37.572;2023-08-12T06:15:28;99791.20;;;24.89;57.43
20228;BME280;12195;55.790;37.572;2023-08-12T06:18:02;99778.98;;;24.71;57.09
20228;BME280;12195;55.790;37.572;2023-08-12T06:20:47;99774.66;;;25.08;56.97
20228;BME280;12195;55.790;37.572;2023-08-12T06:23:20;99765.63;;;25.02;56.12
20228;BME280;12195;55.790;37.572;2023-08-12T06:26:07;99762.25;;;25.46;55.87
20228;BME280;12195;55.790;37.572;2023-08-12T06:28:52;99759.58;;;25.69;55.27
20228;BME280;12195;55.790;37.572;2023-08-12T06:31:39;99768.30;;;25.93;54.48
20228;BME280;12195;55.790;37.572;2023-08-12T06:34:11;99769.62;;;25.75;53.43
20228;BME280;12195;55.790;37.572;2023-08-12T06:36:57;99778.89;;;26.40;52.90
20228;BME280;12195;55.790;37.572;2023-08-12T06:39:31;99766.27;;;26.40;52.06
20228;BME280;12195;55.790;37.572;2023-08-12T06:42:16;99785.48;;;26.89;51.63
20228;BME280;12195;55.790;37.572;2023-08-12T06:45:01;99782.70;;;26.82;51.88
20228;BME280;12195;55.790;37.572;2023-08-12T06:47:36;99772.36;;;26.71;50.60
20228;BME280;12195;55.790;37.572;2023-08-12T06:50:21;99791.81;;;27.10;51.32
20228;BME280;12195;55.790;37.572;2023-08-12T06:53:04;99781.21;;;27.09;51.68
20228;BME280;12195;55.790;37.572;2023-08-12T06:55:47;99787.45;;;27.09;51.60
20228;BME280;12195;55.790;37.572;2023-08-12T06:58:32;99786.05;;;27.13;51.36
20228;BME280;12195;55.790;37.572;2023-08-12T07:01:05;99779.28;;;26.88;50.69
20228;BME280;12195;55.790;37.572;2023-08-12T07:03:50;99789.32;;;27.23;50.63
20228;BME280;12195;55.790;37.572;2023-08-12T07:06:23;99787.81;;;27.06;48.61
20228;BME280;12195;55.790;37.572;2023-08-12T07:09:06;99803.05;;;27.43;48.65
20228;BME280;12195;55.790;37.572;2023-08-12T07:11:49;99803.69;;;27.59;48.50
20228;BME280;12195;55.790;37.572;2023-08-12T07:14:22;99794.59;;;27.46;47.47
20228;BME280;12195;55.790;37.572;2023-08-12T07:17:08;99795.16;;;27.91;47.96
20228;BME280;12195;55.790;37.572;2023-08-12T07:19:52;99792.59;;;28.04;47.64
20228;BME280;12195;55.790;37.572;2023-08-12T07:22:37;99794.31;;;28.12;47.33
20228;BME280;12195;55.790;37.572;2023-08-12T07:25:20;99797.86;;;28.12;47.19
20228;BME280;12195;55.790;37.572;2023-08-12T07:28:05;99797.42;;;28.09;47.25
20228;BME280;12195;55.790;37.572;2023-08-12T07:30:38;99777.31;;;27.76;47.08
20228;BME280;12195;55.790;37.572;2023-08-12T07:33:24;99784.86;;;28.01;47.33
20228;BME280;12195;55.790;37.572;2023-08-12T07:36:09;99778.05;;;28.05;47.08
20228;BME280;12195;55.790;37.572;2023-08-12T07:38:52;99781.52;;;28.20;46.66
20228;BME280;12195;55.790;37.572;2023-08-12T07:41:37;99777.78;;;28.42;45.91
20228;BME280;12195;55.790;37.572;2023-08-12T07:44:10;99765.94;;;28.43;44.80
20228;BME280;12195;55.790;37.572;2023-08-12T07:46:53;99778.31;;;28.86;44.82
20228;BME280;12195;55.790;37.572;2023-08-12T07:49:26;99771.75;;;28.68;43.94
20228;BME280;12195;55.790;37.572;2023-08-12T07:52:09;99784.41;;;28.95;44.85
20228;BME280;12195;55.790;37.572;2023-08-12T07:54:42;99792.19;;;28.49;44.27
20228;BME280;12195;55.790;37.572;2023-08-12T07:57:27;99792.14;;;28.70;45.05
20228;BME280;12195;55.790;37.572;2023-08-12T07:59:59;99799.26;;;28.29;44.83
20228;BME280;12195;55.790;37.572;2023-08-12T08:02:43;99802.43;;;28.54;44.95
20228;BME280;12195;55.790;37.572;2023-08-12T08:05:28;99806.09;;;28.46;45.33
20228;BME280;12195;55.790;37.572;2023-08-12T08:08:11;99831.74;;;28.36;45.67
20228;BME280;12195;55.790;37.572;2023-08-12T08:10:44;99840.33;;;27.83;45.88
20228;BME280;12195;55.790;37.572;2023-08-12T08:13:27;99852.75;;;27.98;46.20
20228;BME280;12195;55.790;37.572;2023-08-12T08:16:00;99840.20;;;27.26;48.81
20228;BME280;12195;55.790;37.572;2023-08-12T08:18:44;99844.75;;;27.26;51.54
20228;BME280;12195;55.790;37.572;2023-08-12T08:21:27;99829.92;;;26.93;51.37
20228;BME280;12195;55.790;37.572;2023-08-12T08:24:00;99816.55;;;26.25;53.61
20228;BME280;12195;55.790;37.572;2023-08-12T08:26:45;99792.74;;;26.37;55.33
20228;BME280;12195;55.790;37.572;2023-08-12T08:29:18;99792.97;;;25.82;55.36
20228;BME280;12195;55.790;37.572;2023-08-12T08:32:03;99813.05;;;26.02;55.52
20228;BME280;12195;55.790;37.572;2023-08-12T08:34:50;99805.67;;;25.96;56.10
20228;BME280;12195;55.790;37.572;2023-08-12T08:37:24;99800.59;;;25.71;55.73
20228;BME280;12195;55.790;37.572;2023-08-12T08:40:08;99807.28;;;26.05;55.31
20228;BME280;12195;55.790;37.572;2023-08-12T08:42:45;99792.06;;;25.90;55.46
20228;BME280;12195;55.790;37.572;2023-08-12T08:45:34;99799.86;;;26.30;54.60
20228;BME280;12195;55.790;37.572;2023-08-12T08:48:21;99785.41;;;26.45;54.43
20228;BME280;12195;55.790;37.572;2023-08-12T08:50:54;99818.16;;;26.34;54.29
20228;BME280;12195;55.790;37.572;2023-08-12T08:53:42;99846.27;;;26.77;53.31
20228;BME280;12195;55.790;37.572;2023-08-12T08:56:30;99855.22;;;26.92;53.04
20228;BME280;12195;55.790;37.572;2023-08-12T08:59:26;99857.38;;;27.11;52.59
20228;BME280;12195;55.790;37.572;2023-08-12T09:02:21;99843.94;;;27.25;52.00
20228;BME280;12195;55.790;37.572;2023-08-12T09:05:19;99828.28;;;27.35;51.79
20228;BME280;12195;55.790;37.572;2023-08-12T09:08:09;99824.00;;;27.12;51.27
20228;BME280;12195;55.790;37.572;2023-08-12T09:11:02;99821.58;;;27.46;51.20
20228;BME280;12195;55.790;37.572;2023-08-12T09:13:35;99816.11;;;27.25;51.08
20228;BME280;12195;55.790;37.572;2023-08-12T09:16:20;99827.42;;;27.64;50.61
20228;BME280;12195;55.790;37.572;2023-08-12T09:19:06;99815.67;;;27.71;50.68
20228;BME280;12195;55.790;37.572;2023-08-12T09:24:39;99831.94;;;27.78;50.82
20228;BME280;12195;55.790;37.572;2023-08-12T09:27:12;99814.06;;;27.41;49.82
20228;BME280;12195;55.790;37.572;2023-08-12T09:29:58;99818.48;;;27.63;50.54
20228;BME280;12195;55.790;37.572;2023-08-12T09:32:33;99826.11;;;27.16;50.52
20228;BME280;12195;55.790;37.572;2023-08-12T09:35:20;99849.23;;;27.33;51.71
20228;BME280;12195;55.790;37.572;2023-08-12T09:37:54;99870.55;;;26.91;51.85
20228;BME280;12195;55.790;37.572;2023-08-12T09:40:40;99866.78;;;27.15;51.89
20228;BME280;12195;55.790;37.572;2023-08-12T09:43:14;99866.96;;;26.39;54.96
20228;BME280;12195;55.790;37.572;2023-08-12T09:46:01;99872.25;;;26.92;55.01
20228;BME280;12195;55.790;37.572;2023-08-12T09:48:35;99857.19;;;26.61;54.94
20228;BME280;12195;55.790;37.572;2023-08-12T09:51:18;99859.40;;;26.94;54.77
20228;BME280;12195;55.790;37.572;2023-08-12T09:53:53;99865.70;;;26.50;54.84
20228;BME280;12195;55.790;37.572;2023-08-12T09:56:37;99846.75;;;26.80;55.05
20228;BME280;12195;55.790;37.572;2023-08-12T09:59:14;99826.80;;;26.30;55.62
20228;BME280;12195;55.790;37.572;2023-08-12T10:01:58;99835.88;;;26.51;55.99
20228;BME280;12195;55.790;37.572;2023-08-12T10:04:44;99837.80;;;26.43;56.41
20228;BME280;12195;55.790;37.572;2023-08-12T10:07:18;99820.80;;;25.97;56.66
20228;BME280;12195;55.790;37.572;2023-08-12T10:10:04;99822.97;;;26.24;57.11
20228;BME280;12195;55.790;37.572;2023-08-12T10:12:39;99811.55;;;25.69;57.50
20228;BME280;12195;55.790;37.572;2023-08-12T10:15:24;99814.06;;;25.93;58.94
20228;BME280;12195;55.790;37.572;2023-08-12T10:17:58;99816.03;;;25.46;58.05
20228;BME280;12195;55.790;37.572;2023-08-12T10:20:32;99822.47;;;25.37;57.75
20228;BME280;12195;55.790;37.572;2023-08-12T10:23:17;99827.49;;;25.71;58.61
20228;BME280;12195;55.790;37.572;2023-08-12T10:25:53;99825.91;;;24.99;59.51
20228;BME280;12195;55.790;37.572;2023-08-12T10:28:38;99835.81;;;25.61;60.25
20228;BME280;12195;55.790;37.572;2023-08-12T10:31:22;99821.29;;;25.70;59.47
20228;BME280;12195;55.790;37.572;2023-08-12T10:34:05;99833.37;;;25.74;58.89
20228;BME280;12195;55.790;37.572;2023-08-12T10:36:41;99837.92;;;25.27;59.82
20228;BME280;12195;55.790;37.572;2023-08-12T10:39:28;99838.50;;;25.61;59.16
20228;BME280;12195;55.790;37.572;2023-08-12T10:42:04;99818.34;;;25.11;60.39
20228;BME280;12195;55.790;37.572;2023-08-12T10:44:51;99824.82;;;25.40;60.55
20228;BME280;12195;55.790;37.572;2023-08-12T10:47:47;99821.28;;;25.40;60.07
20228;BME280;12195;55.790;37.572;2023-08-12T10:50:24;99812.80;;;25.12;59.47
20228;BME280;12195;55.790;37.572;2023-08-12T10:53:28;99814.80;;;25.57;58.92
20228;BME280;12195;55.790;37.572;2023-08-12T10:56:11;99815.06;;;25.70;59.30
20228;BME280;12195;55.790;37.572;2023-08-12T10:58:54;99817.06;;;25.76;59.75
20228;BME280;12195;55.790;37.572;2023-08-12T11:01:29;99803.64;;;25.37;59.49
20228;BME280;12195;55.790;37.572;2023-08-12T11:04:16;99798.30;;;25.29;60.62
20228;BME280;12195;55.790;37.572;2023-08-12T11:06:50;99810.31;;;25.49;60.92
20228;BME280;12195;55.790;37.572;2023-08-12T11:09:24;99827.95;;;24.97;61.51
20228;BME280;12195;55.790;37.572;2023-08-12T11:12:09;99860.31;;;25.20;62.65
20228;BME280;12195;55.790;37.572;2023-08-12T11:14:54;99861.52;;;25.09;61.77
20228;BME280;12195;55.790;37.572;2023-08-12T11:17:42;99870.78;;;24.98;62.29
20228;BME280;12195;55.790;37.572;2023-08-12T11:20:15;99861.06;;;24.57;62.85
20228;BME280;12195;55.790;37.572;2023-08-12T11:22:49;99863.75;;;24.49;63.66
20228;BME280;12195;55.790;37.572;2023-08-12T11:25:25;99854.67;;;24.42;63.92
20228;BME280;12195;55.790;37.572;2023-08-12T11:28:20;99874.19;;;24.68;64.12
20228;BME280;12195;55.790;37.572;2023-08-12T11:30:53;99873.98;;;24.30;64.35
20228;BME280;12195;55.790;37.572;2023-08-12T11:33:38;99877.34;;;24.56;65.21
20228;BME280;12195;55.790;37.572;2023-08-12T11:36:11;99877.84;;;24.19;65.70
20228;BME280;12195;55.790;37.572;2023-08-12T11:38:57;99888.08;;;24.48;66.22
20228;BME280;12195;55.790;37.572;2023-08-12T11:41:42;99878.32;;;24.15;69.53
20228;BME280;12195;55.790;37.572;2023-08-12T11:44:16;99856.75;;;23.83;65.54
20228;BME280;12195;55.790;37.572;2023-08-12T11:46:59;99843.42;;;24.15;67.77
20228;BME280;12195;55.790;37.572;2023-08-12T11:49:35;99842.84;;;23.79;68.08
20228;BME280;12195;55.790;37.572;2023-08-12T11:52:22;99856.19;;;24.13;67.29
20228;BME280;12195;55.790;37.572;2023-08-12T11:55:08;99864.56;;;24.10;68.22
20228;BME280;12195;55.790;37.572;2023-08-12T11:57:42;99835.27;;;23.75;69.75
20228;BME280;12195;55.790;37.572;2023-08-12T12:00:29;99837.89;;;24.08;69.89
20228;BME280;12195;55.790;37.572;2023-08-12T12:03:03;99831.26;;;23.79;68.83
20228;BME280;12195;55.790;37.572;2023-08-12T12:05:49;99827.81;;;24.18;67.55
20228;BME280;12195;55.790;37.572;2023-08-12T12:08:36;99834.70;;;24.21;67.79
20228;BME280;12195;55.790;37.572;2023-08-12T12:11:10;99830.66;;;23.93;67.40
20228;BME280;12195;55.790;37.572;2023-08-12T12:13:55;99832.38;;;24.18;67.51
20228;BME280;12195;55.790;37.572;2023-08-12T12:16:43;99830.06;;;23.73;70.06
20228;BME280;12195;55.790;37.572;2023-08-12T12:19:29;99840.23;;;24.03;70.16
20228;BME280;12195;55.790;37.572;2023-08-12T12:22:06;99823.84;;;23.57;70.97
20228;BME280;12195;55.790;37.572;2023-08-12T12:24:52;99804.27;;;23.80;71.45
20228;BME280;12195;55.790;37.572;2023-08-12T12:27:41;99787.13;;;23.65;72.75
20228;BME280;12195;55.790;37.572;2023-08-12T12:30:26;99768.70;;;23.54;71.94
20228;BME280;12195;55.790;37.572;2023-08-12T12:33:12;99783.88;;;23.38;73.04
20228;BME280;12195;55.790;37.572;2023-08-12T12:35:57;99781.15;;;22.88;77.04
20228;BME280;12195;55.790;37.572;2023-08-12T12:38:32;99756.37;;;22.61;74.45
20228;BME280;12195;55.790;37.572;2023-08-12T12:41:17;99748.35;;;22.94;75.14
20228;BME280;12195;55.790;37.572;2023-08-12T12:43:50;99740.59;;;22.50;74.78
20228;BME280;12195;55.790;37.572;2023-08-12T12:46:36;99713.95;;;22.74;74.76
20228;BME280;12195;55.790;37.572;2023-08-12T12:49:09;99708.29;;;22.26;74.32
20228;BME280;12195;55.790;37.572;2023-08-12T12:51:52;99695.41;;;22.47;74.50
20228;BME280;12195;55.790;37.572;2023-08-12T12:54:37;99739.66;;;22.41;75.45
20228;BME280;12195;55.790;37.572;2023-08-12T12:57:09;99756.56;;;21.99;76.84
20228;BME280;12195;55.790;37.572;2023-08-12T12:59:54;99790.23;;;22.27;75.85
20228;BME280;12195;55.790;37.572;2023-08-12T13:02:27;99787.91;;;21.89;76.87
20228;BME280;12195;55.790;37.572;2023-08-12T13:05:10;99790.02;;;22.20;77.17
20228;BME280;12195;55.790;37.572;2023-08-12T13:07:42;99778.11;;;21.97;77.38
20228;BME280;12195;55.790;37.572;2023-08-12T13:10:25;99774.75;;;22.38;76.46
20228;BME280;12195;55.790;37.572;2023-08-12T13:13:09;99777.58;;;22.54;75.68
20228;BME280;12195;55.790;37.572;2023-08-12T13:15:43;99761.38;;;22.38;74.48
20228;BME280;12195;55.790;37.572;2023-08-12T13:18:30;99748.58;;;22.75;75.03
20228;BME280;12195;55.790;37.572;2023-08-12T13:21:03;99745.15;;;22.57;74.89
20228;BME280;12195;55.790;37.572;2023-08-12T13:23:47;99752.66;;;22.87;74.19
20228;BME280;12195;55.790;37.572;2023-08-12T13:26:21;99749.34;;;22.60;75.17
20228;BME280;12195;55.790;37.572;2023-08-12T13:29:07;99762.21;;;22.90;75.26
20228;BME280;12195;55.790;37.572;2023-08-12T13:31:40;99763.83;;;22.75;74.73
20228;BME280;12195;55.790;37.572;2023-08-12T13:34:27;99765.00;;;23.14;73.30
20228;BME280;12195;55.790;37.572;2023-08-12T13:37:00;99763.26;;;22.97;73.88
20228;BME280;12195;55.790;37.572;2023-08-12T13:39:44;99764.09;;;23.23;73.12
20228;BME280;12195;55.790;37.572;2023-08-12T13:42:29;99760.90;;;23.27;72.58
20228;BME280;12195;55.790;37.572;2023-08-12T13:45:15;99747.52;;;23.35;73.49
20228;BME280;12195;55.790;37.572;2023-08-12T13:47:49;99743.30;;;23.25;72.68
20228;BME280;12195;55.790;37.572;2023-08-12T13:50:32;99734.52;;;23.72;73.61
20228;BME280;12195;55.790;37.572;2023-08-12T13:53:17;99721.32;;;24.03;71.99
20228;BME280;12195;55.790;37.572;2023-08-12T13:55:51;99703.39;;;23.95;70.58
20228;BME280;12195;55.790;37.572;2023-08-12T13:58:35;99695.09;;;24.37;70.10
20228;BME280;12195;55.790;37.572;2023-08-12T14:01:09;99685.40;;;24.20;68.39
20228;BME280;12195;55.790;37.572;2023-08-12T14:03:52;99700.09;;;24.56;68.86
20228;BME280;12195;55.790;37.572;2023-08-12T14:06:36;99689.19;;;24.65;67.39